createdAt,value
2022-10-13T00:01:24.074Z,6.43
2022-10-13T00:03:51.637Z,12.80
2022-10-13T00:06:23.240Z,7.10
2022-10-13T00:08:51.109Z,8.13
2022-10-13T00:11:25.050Z,7.85
2022-10-13T00:13:57.547Z,10.77
2022-10-13T00:16:24.803Z,9.13
2022-10-13T00:18:52.601Z,8.07
2022-10-13T00:21:26.988Z,7.75
2022-10-13T00:23:55.400Z,7.68
2022-10-13T00:26:26.643Z,7.25
2022-10-13T00:28:56.688Z,11.27
2022-10-13T00:31:31.772Z,9.30
2022-10-13T00:34:03.629Z,7.38
2022-10-13T00:36:30.706Z,7.32
2022-10-13T00:39:01.500Z,8.73
2022-10-13T00:41:28.357Z,11.13
2022-10-13T00:44:04.347Z,8.45
2022-10-13T00:46:37.271Z,6.15
2022-10-13T00:49:14.367Z,9.10
2022-10-13T00:51:51.841Z,10.45
2022-10-13T00:54:24.612Z,8.10
2022-10-13T00:56:54.193Z,8.95
2022-10-13T00:59:28.992Z,10.93
2022-10-13T01:01:59.637Z,7.53
2022-10-13T01:04:37.261Z,7.10
2022-10-13T01:07:06.540Z,5.25
2022-10-13T01:09:37.705Z,5.93
2022-10-13T01:12:55.509Z,7.10
2022-10-13T01:15:58.825Z,8.35
2022-10-13T01:19:10.145Z,12.20
2022-10-13T01:21:51.982Z,8.10
2022-10-13T01:24:46.820Z,8.85
2022-10-13T01:27:45.496Z,8.55
2022-10-13T01:30:20.991Z,6.47
2022-10-13T01:33:30.483Z,10.05
2022-10-13T01:36:47.597Z,7.38
2022-10-13T01:39:35.239Z,8.43
2022-10-13T01:42:18.394Z,7.53
2022-10-13T01:45:02.450Z,8.23
2022-10-13T01:47:35.224Z,8.00
2022-10-13T01:50:04.516Z,7.57
2022-10-13T01:52:39.209Z,8.23
2022-10-13T01:55:11.825Z,6.00
2022-10-13T01:57:45.581Z,7.88
2022-10-13T02:00:23.376Z,10.18
2022-10-13T02:03:16.359Z,7.90
2022-10-13T02:06:18.322Z,6.80
2022-10-13T02:08:57.364Z,11.35
2022-10-13T02:11:25.491Z,10.05
2022-10-13T02:14:27.812Z,7.40
2022-10-13T02:17:00.162Z,12.38
2022-10-13T02:19:29.996Z,10.13
2022-10-13T02:22:00.226Z,8.38
2022-10-13T02:24:27.196Z,6.07
2022-10-13T02:26:54.429Z,5.88
2022-10-13T02:29:21.915Z,10.23
2022-10-13T02:31:48.592Z,8.48
2022-10-13T02:34:15.911Z,9.23
2022-10-13T02:36:42.707Z,12.02
2022-10-13T02:39:11.121Z,10.23
2022-10-13T02:41:38.552Z,9.93
2022-10-13T02:44:06.952Z,7.75
2022-10-13T02:46:34.146Z,6.72
2022-10-13T02:49:03.826Z,10.95
2022-10-13T02:51:30.535Z,9.35
2022-10-13T02:53:57.214Z,8.00
2022-10-13T02:56:26.590Z,10.02
2022-10-13T02:58:53.675Z,9.07
2022-10-13T03:01:20.367Z,8.93
2022-10-13T03:03:47.198Z,6.85
2022-10-13T03:06:13.797Z,8.13
2022-10-13T03:08:40.521Z,9.02
2022-10-13T03:11:07.310Z,8.45
2022-10-13T03:13:34.051Z,8.70
2022-10-13T03:16:00.688Z,10.85
2022-10-13T03:18:27.369Z,7.93
2022-10-13T03:21:06.544Z,12.43
2022-10-13T03:23:33.773Z,6.53
2022-10-13T03:26:00.542Z,9.43
2022-10-13T03:28:27.695Z,10.45
2022-10-13T03:31:08.563Z,13.52
2022-10-13T03:33:35.438Z,11.75
2022-10-13T03:36:07.446Z,12.43
2022-10-13T03:38:36.001Z,10.80
2022-10-13T03:41:09.732Z,10.68
2022-10-13T03:43:36.775Z,9.57
2022-10-13T03:46:07.059Z,8.82
2022-10-13T03:48:36.480Z,11.50
2022-10-13T03:51:10.796Z,11.13
2022-10-13T04:18:03.039Z,8.90
2022-10-13T04:20:29.958Z,10.90
2022-10-13T05:14:02.366Z,13.43
2022-10-13T05:16:30.889Z,9.98
2022-10-13T05:18:57.782Z,9.93
2022-10-13T05:29:36.592Z,9.38
2022-10-13T05:32:04.205Z,11.80
2022-10-13T05:34:31.253Z,11.68
2022-10-13T05:36:58.730Z,12.38
2022-10-13T05:39:25.832Z,15.75
2022-10-13T05:41:52.693Z,16.17
2022-10-13T05:47:07.236Z,14.02
2022-10-13T06:16:52.891Z,16.70
2022-10-13T06:24:44.069Z,16.33
2022-10-13T06:27:11.452Z,16.58
2022-10-13T06:29:38.307Z,14.95
2022-10-13T06:32:08.556Z,12.02
2022-10-13T06:34:35.273Z,15.90
2022-10-13T06:37:01.980Z,11.85
2022-10-13T06:39:28.652Z,18.08
2022-10-13T06:41:55.408Z,15.05
2022-10-13T06:44:22.079Z,17.70
2022-10-13T06:46:48.950Z,12.48
2022-10-13T06:49:16.028Z,12.45
2022-10-13T06:51:42.800Z,13.10
2022-10-13T06:54:09.534Z,13.63
2022-10-13T06:56:36.293Z,10.68
2022-10-13T06:59:03.089Z,10.98
2022-10-13T07:01:29.762Z,11.13
2022-10-13T07:03:56.425Z,13.82
2022-10-13T07:06:23.629Z,15.63
2022-10-13T07:08:50.466Z,11.68
2022-10-13T07:11:18.539Z,10.50
2022-10-13T07:13:47.093Z,14.73
2022-10-13T07:16:16.855Z,11.02
2022-10-13T07:18:43.748Z,11.15
2022-10-13T07:21:10.408Z,15.82
2022-10-13T07:23:37.111Z,17.15
2022-10-13T07:26:14.693Z,10.07
2022-10-13T07:28:43.720Z,10.05
2022-10-13T07:31:21.535Z,13.00
2022-10-13T07:33:51.667Z,16.95
2022-10-13T07:36:19.263Z,12.98
2022-10-13T07:38:53.995Z,11.13
2022-10-13T07:41:20.851Z,10.18
2022-10-13T07:43:47.754Z,13.55
2022-10-13T07:46:16.023Z,11.27
2022-10-13T07:48:48.655Z,12.98
2022-10-13T07:51:18.607Z,11.10
2022-10-13T07:53:50.523Z,12.30
2022-10-13T07:56:17.389Z,10.18
2022-10-13T07:58:47.762Z,11.07
2022-10-13T08:01:18.052Z,12.93
2022-10-13T08:03:49.830Z,12.32
2022-10-13T08:06:18.676Z,14.88
2022-10-13T08:08:48.080Z,13.20
2022-10-13T08:11:17.287Z,13.10
2022-10-13T08:13:52.492Z,11.00
2022-10-13T08:16:20.035Z,15.32
2022-10-13T08:18:48.462Z,14.63
2022-10-13T08:24:17.967Z,14.05
2022-10-13T08:26:47.120Z,12.57
2022-10-13T08:29:22.041Z,13.23
2022-10-13T08:31:56.157Z,13.77
2022-10-13T08:34:24.272Z,14.38
2022-10-13T08:36:56.298Z,15.43
2022-10-13T08:39:25.216Z,13.05
2022-10-13T08:41:55.587Z,14.77
2022-10-13T08:47:51.122Z,13.13
2022-10-13T08:50:28.832Z,14.63
2022-10-13T08:53:42.611Z,12.80
2022-10-13T08:56:23.237Z,13.05
2022-10-13T08:58:54.419Z,14.10
2022-10-13T09:01:32.782Z,14.23
2022-10-13T09:04:41.592Z,17.27
2022-10-13T09:07:46.369Z,13.43
2022-10-13T09:10:16.585Z,15.13
2022-10-13T09:12:43.642Z,13.70
2022-10-13T09:15:12.744Z,14.77
2022-10-13T09:17:41.757Z,17.63
2022-10-13T09:20:27.564Z,16.38
2022-10-13T09:23:07.901Z,16.58
2022-10-13T09:25:47.694Z,19.75
2022-10-13T09:28:29.199Z,16.95
2022-10-13T09:31:18.529Z,14.98
2022-10-13T09:34:17.347Z,15.25
2022-10-13T09:37:06.431Z,20.75
2022-10-13T09:39:34.443Z,16.83
2022-10-13T09:42:27.928Z,15.35
2022-10-13T09:45:12.109Z,15.10
2022-10-13T09:47:40.246Z,16.90
2022-10-13T09:50:23.168Z,18.65
2022-10-13T09:52:52.566Z,13.82
2022-10-13T09:55:37.267Z,16.15
2022-10-13T09:58:22.875Z,14.30
2022-10-13T10:00:52.590Z,17.63
2022-10-13T10:03:35.497Z,17.55
2022-10-13T10:09:42.000Z,21.55
2022-10-13T10:12:23.007Z,17.05
2022-10-13T10:14:53.668Z,16.05
2022-10-13T10:17:43.624Z,16.38
2022-10-13T10:21:11.344Z,16.67
2022-10-13T10:23:57.717Z,15.90
2022-10-13T10:26:53.377Z,13.85
2022-10-13T10:29:54.073Z,19.88
2022-10-13T10:32:59.087Z,16.40
2022-10-13T10:36:37.561Z,14.15
2022-10-13T10:39:40.885Z,18.08
2022-10-13T10:42:41.814Z,19.27
2022-10-13T10:45:26.246Z,16.80
2022-10-13T10:48:07.101Z,14.50
2022-10-13T10:50:35.521Z,16.35
2022-10-13T10:53:31.594Z,16.23
2022-10-13T10:56:42.492Z,17.52
2022-10-13T10:59:51.760Z,21.35
2022-10-13T11:03:04.986Z,19.30
2022-10-13T11:05:57.134Z,16.67
2022-10-13T11:22:32.268Z,19.07
2022-10-13T11:25:41.806Z,19.33
2022-10-13T11:36:56.127Z,20.20
2022-10-13T11:45:40.448Z,15.82
2022-10-13T11:49:10.432Z,14.88
2022-10-13T11:53:00.818Z,17.67
2022-10-13T11:55:58.614Z,17.88
2022-10-13T11:58:32.233Z,18.08
2022-10-13T12:01:12.974Z,18.50
2022-10-13T12:03:52.541Z,18.15
2022-10-13T12:06:33.735Z,19.75
2022-10-13T12:09:21.897Z,19.45
2022-10-13T12:12:16.025Z,22.45
2022-10-13T12:14:52.012Z,22.92
2022-10-13T12:17:39.058Z,16.92
2022-10-13T12:20:28.580Z,17.60
2022-10-13T12:22:57.362Z,17.95
2022-10-13T12:25:30.391Z,18.83
2022-10-13T12:28:01.049Z,14.88
2022-10-13T12:30:36.340Z,18.75
2022-10-13T12:33:21.434Z,18.63
2022-10-13T12:35:48.234Z,21.73
2022-10-13T12:38:22.380Z,18.45
2022-10-13T12:43:25.459Z,19.05
2022-10-13T12:45:52.639Z,18.73
2022-10-13T12:48:38.373Z,18.20
2022-10-13T12:51:27.967Z,16.42
2022-10-13T12:53:55.302Z,17.40
2022-10-13T12:56:33.034Z,20.85
2022-10-13T12:59:03.769Z,18.60
2022-10-13T13:01:35.680Z,20.10
2022-10-13T13:04:28.644Z,19.40
2022-10-13T13:07:06.213Z,20.95
2022-10-13T13:09:39.756Z,24.88
2022-10-13T13:12:12.542Z,26.40
2022-10-13T13:14:54.661Z,21.08
2022-10-13T13:17:56.684Z,21.38
2022-10-13T13:20:38.071Z,22.65
2022-10-13T13:23:05.651Z,23.38
2022-10-13T13:25:32.429Z,20.63
2022-10-13T13:27:59.101Z,21.92
2022-10-13T13:30:26.768Z,21.13
2022-10-13T13:32:53.849Z,19.80
2022-10-13T13:46:32.351Z,19.88
2022-10-13T13:51:26.407Z,22.48
2022-10-13T13:53:53.356Z,22.08
2022-10-13T13:56:21.182Z,22.67
2022-10-13T13:58:48.702Z,19.73
2022-10-13T14:01:16.006Z,19.10
2022-10-13T14:03:45.637Z,25.02
2022-10-13T14:06:21.363Z,25.77
2022-10-13T14:38:24.818Z,29.00
2022-10-13T14:43:33.494Z,26.80
2022-10-13T14:46:06.668Z,28.65
2022-10-13T15:04:48.111Z,27.95
2022-10-13T16:09:17.961Z,39.65
2022-10-13T16:17:07.208Z,41.33
2022-10-13T16:19:36.713Z,44.63
2022-10-13T16:44:05.892Z,55.30
2022-10-13T16:49:23.532Z,61.53
2022-10-13T16:52:00.678Z,55.90
2022-10-13T16:54:27.698Z,63.38
2022-10-13T16:56:56.720Z,56.75
2022-10-13T16:59:23.566Z,57.42
2022-10-13T17:02:05.120Z,59.72
2022-10-13T17:13:01.477Z,67.05
2022-10-13T17:21:05.396Z,70.68
2022-10-13T17:34:20.013Z,68.30
2022-10-13T19:48:43.464Z,113.30
2022-10-13T20:42:20.799Z,93.28
2022-10-13T20:44:47.497Z,99.80
2022-10-13T20:47:14.124Z,91.38
2022-10-13T20:49:40.923Z,95.47
2022-10-13T20:52:07.607Z,95.25
2022-10-13T20:54:34.250Z,96.28
2022-10-13T20:57:00.986Z,100.43
2022-10-13T20:59:27.748Z,118.93
2022-10-13T21:01:54.473Z,113.63
2022-10-13T21:04:21.489Z,115.40
2022-10-13T21:06:48.799Z,111.32
2022-10-13T21:09:15.698Z,133.90
2022-10-13T21:11:42.409Z,126.85
2022-10-13T21:14:10.419Z,107.43
2022-10-13T21:16:38.361Z,123.45
2022-10-13T21:19:05.252Z,114.68
2022-10-13T21:21:35.049Z,134.23
2022-10-13T21:24:06.987Z,121.90
2022-10-13T21:26:35.360Z,115.40
2022-10-13T21:29:02.823Z,132.75
2022-10-13T21:31:30.545Z,108.50
2022-10-13T21:33:57.963Z,124.85
2022-10-13T21:36:30.465Z,125.43
2022-10-13T21:39:05.379Z,113.07
2022-10-13T21:41:32.308Z,130.60
2022-10-13T21:43:58.997Z,119.95
2022-10-13T21:46:30.811Z,135.25
2022-10-13T21:49:02.743Z,127.05
2022-10-13T21:51:37.601Z,122.75
2022-10-13T21:54:13.029Z,138.90
2022-10-13T21:56:46.146Z,122.30
2022-10-13T21:59:15.717Z,118.32
2022-10-13T22:01:46.478Z,111.22
2022-10-13T22:04:15.195Z,131.68
2022-10-13T22:06:43.356Z,118.07
2022-10-13T22:09:10.363Z,127.57
2022-10-13T22:11:39.267Z,111.65
2022-10-13T22:14:07.093Z,111.88
2022-10-13T22:16:40.943Z,115.35
2022-10-13T22:19:08.376Z,113.10
2022-10-13T22:21:44.696Z,121.15
2022-10-13T22:24:18.139Z,125.45
2022-10-13T22:26:48.052Z,107.22
2022-10-13T22:29:20.171Z,109.50
2022-10-13T22:31:48.049Z,110.97
2022-10-13T22:34:16.706Z,106.10
2022-10-13T22:36:44.992Z,112.85
2022-10-13T22:39:13.902Z,111.60
2022-10-13T22:41:41.472Z,100.47
2022-10-13T22:44:08.634Z,102.00
2022-10-13T22:46:38.457Z,101.00
2022-10-13T22:49:08.383Z,119.05
2022-10-13T22:51:36.910Z,113.65
2022-10-13T22:54:05.635Z,104.25
2022-10-13T22:56:34.907Z,98.75
2022-10-13T22:59:11.439Z,115.95
2022-10-13T23:01:38.217Z,108.38
2022-10-13T23:04:06.047Z,107.88
2022-10-13T23:06:36.500Z,114.47
2022-10-13T23:09:10.378Z,105.35
2022-10-13T23:11:37.330Z,113.85
2022-10-13T23:14:04.737Z,97.57
2022-10-13T23:16:32.027Z,102.40
2022-10-13T23:19:01.839Z,118.50
2022-10-13T23:21:31.121Z,105.43
2022-10-13T23:24:03.200Z,104.15
2022-10-13T23:26:31.385Z,100.18
2022-10-13T23:29:02.769Z,116.95
2022-10-13T23:31:29.711Z,102.68
2022-10-13T23:33:59.571Z,103.68
2022-10-13T23:36:41.803Z,102.35
2022-10-13T23:39:10.753Z,95.40
2022-10-13T23:41:38.713Z,105.47
2022-10-13T23:44:06.016Z,102.38
2022-10-13T23:46:32.798Z,103.15
2022-10-13T23:48:59.772Z,96.70
2022-10-13T23:51:26.996Z,95.57
2022-10-13T23:53:55.698Z,102.05
2022-10-13T23:56:23.666Z,99.13
2022-10-13T23:58:50.802Z,92.45
